createdAt,value
2023-05-21T00:00:30.381Z,15.35
2023-05-21T00:05:30.321Z,15.82
2023-05-21T00:10:30.246Z,15.60
2023-05-21T00:15:30.169Z,15.28
2023-05-21T00:20:30.111Z,15.43
2023-05-21T00:25:30.046Z,15.35
2023-05-21T00:30:29.965Z,15.51
2023-05-21T00:35:29.904Z,15.21
2023-05-21T00:40:29.835Z,14.94
2023-05-21T00:45:30.009Z,14.62
2023-05-21T00:50:29.689Z,14.64
2023-05-21T00:55:29.632Z,14.78
2023-05-21T01:00:29.566Z,14.91
2023-05-21T01:05:29.535Z,14.81
2023-05-21T01:10:29.429Z,14.78
2023-05-21T01:15:29.365Z,14.54
2023-05-21T01:20:29.299Z,14.12
2023-05-21T01:25:29.244Z,13.61
2023-05-21T01:30:29.164Z,13.36
2023-05-21T01:35:29.099Z,13.58
2023-05-21T01:40:29.031Z,13.92
2023-05-21T01:45:28.990Z,13.91
2023-05-21T01:50:28.895Z,13.70
2023-05-21T01:55:28.846Z,13.67
2023-05-21T02:00:28.767Z,14.07
2023-05-21T02:05:28.721Z,13.96
2023-05-21T02:10:28.635Z,13.81
2023-05-21T02:15:28.565Z,14.12
2023-05-21T02:20:28.496Z,14.10
2023-05-21T02:25:28.433Z,14.12
2023-05-21T02:30:28.374Z,13.96
2023-05-21T02:35:28.297Z,13.44
2023-05-21T02:40:28.229Z,13.43
2023-05-21T02:45:28.179Z,13.40
2023-05-21T02:50:28.089Z,13.37
2023-05-21T02:55:28.024Z,12.97
2023-05-21T03:00:27.977Z,13.27
2023-05-21T03:05:27.897Z,13.40
2023-05-21T03:10:27.819Z,13.51
2023-05-21T03:15:27.757Z,13.18
2023-05-21T03:20:27.687Z,13.41
2023-05-21T03:25:27.625Z,13.40
2023-05-21T03:30:27.546Z,13.07
2023-05-21T03:35:27.498Z,12.85
2023-05-21T03:40:27.413Z,13.24
2023-05-21T03:45:27.349Z,13.30
2023-05-21T03:50:27.303Z,13.94
2023-05-21T03:55:27.230Z,13.69
2023-05-21T04:00:27.138Z,13.24
2023-05-21T04:05:27.081Z,13.24
2023-05-21T04:10:27.029Z,13.36
2023-05-21T04:15:26.959Z,13.44
2023-05-21T04:20:26.885Z,13.63
2023-05-21T04:25:26.818Z,13.92
2023-05-21T04:30:26.758Z,14.32
2023-05-21T04:35:26.690Z,15.28
2023-05-21T04:40:26.627Z,17.10
2023-05-21T04:45:26.586Z,19.18
2023-05-21T04:50:26.477Z,20.81
2023-05-21T04:55:26.443Z,22.19
2023-05-21T05:00:26.370Z,23.17
2023-05-21T05:05:26.282Z,24.02
2023-05-21T05:10:26.210Z,24.75
2023-05-21T05:15:26.413Z,25.30
2023-05-21T05:20:26.091Z,25.83
2023-05-21T05:25:26.038Z,26.36
2023-05-21T05:30:25.960Z,26.67
2023-05-21T05:35:25.900Z,26.32
2023-05-21T05:40:25.846Z,26.22
2023-05-21T05:45:25.781Z,25.80
2023-05-21T05:50:25.711Z,26.01
2023-05-21T05:55:25.646Z,25.98
2023-05-21T06:00:25.616Z,25.98
2023-05-21T06:05:25.570Z,25.72
2023-05-21T06:10:25.449Z,26.42
2023-05-21T06:15:25.385Z,26.68
2023-05-21T06:20:25.336Z,26.52
2023-05-21T06:25:25.270Z,26.98
2023-05-21T06:30:25.219Z,26.69
2023-05-21T06:35:25.145Z,26.12
2023-05-21T06:40:25.064Z,25.53
2023-05-21T06:45:25.065Z,25.07
2023-05-21T06:50:24.942Z,24.56
2023-05-21T06:55:24.896Z,24.00
2023-05-21T07:00:25.193Z,24.31
2023-05-21T07:05:24.751Z,24.49
2023-05-21T07:10:26.120Z,24.26
2023-05-21T07:15:24.637Z,23.90
2023-05-21T07:20:27.273Z,23.86
2023-05-21T07:25:24.482Z,24.14
2023-05-21T07:30:24.447Z,24.56
2023-05-21T07:35:24.356Z,24.71
2023-05-21T07:40:24.322Z,25.15
2023-05-21T07:45:24.257Z,25.61
2023-05-21T07:50:24.212Z,26.04
2023-05-21T07:55:24.121Z,25.91
2023-05-21T08:00:24.072Z,26.32
2023-05-21T08:05:23.986Z,26.76
2023-05-21T08:10:23.946Z,26.72
2023-05-21T08:15:23.837Z,26.35
2023-05-21T08:20:23.766Z,26.28
2023-05-21T08:25:23.724Z,26.40
2023-05-21T08:30:23.636Z,27.23
2023-05-21T08:35:23.584Z,27.86
2023-05-21T08:40:23.539Z,28.22
2023-05-21T08:45:23.473Z,28.47
2023-05-21T08:50:23.387Z,28.32
2023-05-21T08:55:23.361Z,28.01
2023-05-21T09:00:23.271Z,27.76
2023-05-21T09:05:23.198Z,27.76
2023-05-21T09:10:23.136Z,27.64
2023-05-21T09:15:23.070Z,27.53
2023-05-21T09:20:23.025Z,27.47
2023-05-21T09:25:22.941Z,27.32
2023-05-21T09:30:26.774Z,27.29
2023-05-21T09:35:23.811Z,27.13
2023-05-21T09:40:22.730Z,26.91
2023-05-21T09:45:22.686Z,27.05
2023-05-21T09:50:22.616Z,27.09
2023-05-21T09:55:22.556Z,27.21
2023-05-21T10:00:22.494Z,27.16
2023-05-21T10:05:22.427Z,27.28
2023-05-21T10:10:22.353Z,27.14
2023-05-21T10:15:22.347Z,27.43
2023-05-21T10:20:22.229Z,27.42
2023-05-21T10:25:22.162Z,27.35
2023-05-21T10:30:22.097Z,27.80
2023-05-21T10:35:22.040Z,27.96
2023-05-21T10:40:21.988Z,27.86
2023-05-21T10:45:21.905Z,27.10
2023-05-21T10:50:21.881Z,26.11
2023-05-21T10:55:21.781Z,26.15
2023-05-21T11:00:21.800Z,26.39
2023-05-21T11:05:21.664Z,27.32
2023-05-21T11:10:21.579Z,27.54
2023-05-21T11:15:21.539Z,27.42
2023-05-21T11:20:21.459Z,27.38
2023-05-21T11:25:21.397Z,26.96
2023-05-21T11:30:21.318Z,26.89
2023-05-21T11:35:21.287Z,27.04
2023-05-21T11:40:21.183Z,27.38
2023-05-21T11:45:21.143Z,27.62
2023-05-21T11:50:21.054Z,26.94
2023-05-21T11:55:21.046Z,26.35
2023-05-21T12:00:20.916Z,26.02
2023-05-21T12:05:20.867Z,25.65
2023-05-21T12:10:20.883Z,25.82
2023-05-21T12:15:20.802Z,25.39
2023-05-21T12:20:20.712Z,25.00
2023-05-21T12:25:20.606Z,24.68
2023-05-21T12:30:20.518Z,25.15
2023-05-21T12:35:20.503Z,25.15
2023-05-21T12:40:20.404Z,25.05
2023-05-21T12:45:20.340Z,25.38
2023-05-21T12:50:20.281Z,25.42
2023-05-21T12:55:20.208Z,25.93
2023-05-21T13:00:20.140Z,26.01
2023-05-21T13:05:20.181Z,25.25
2023-05-21T13:10:20.005Z,25.90
2023-05-21T13:15:19.944Z,25.84
2023-05-21T13:20:19.875Z,25.52
2023-05-21T13:25:19.880Z,25.99
2023-05-21T13:30:20.074Z,26.67
2023-05-21T13:35:19.736Z,26.29
2023-05-21T13:40:19.928Z,25.67
2023-05-21T13:45:19.626Z,25.90
2023-05-21T13:50:19.537Z,25.86
2023-05-21T13:55:19.459Z,25.46
2023-05-21T14:00:19.380Z,24.85
2023-05-21T14:05:19.322Z,25.19
2023-05-21T14:10:19.277Z,24.95
2023-05-21T14:15:19.178Z,24.97
2023-05-21T14:20:19.129Z,24.94
2023-05-21T14:25:19.066Z,25.74
2023-05-21T14:30:18.997Z,25.79
2023-05-21T14:35:18.943Z,26.09
2023-05-21T14:40:18.864Z,26.04
2023-05-21T14:45:19.542Z,26.01
2023-05-21T14:50:18.743Z,25.98
2023-05-21T14:55:18.681Z,25.90
2023-05-21T15:00:18.632Z,25.72
2023-05-21T15:05:18.837Z,25.74
2023-05-21T15:10:18.803Z,25.72
2023-05-21T15:15:18.381Z,25.67
2023-05-21T15:20:19.252Z,25.79
2023-05-21T15:25:18.253Z,25.54
2023-05-21T15:30:18.173Z,25.43
2023-05-21T15:35:18.499Z,25.35
2023-05-21T15:40:18.034Z,25.17
2023-05-21T15:45:17.992Z,25.05
2023-05-21T15:50:17.980Z,25.17
2023-05-21T15:55:18.279Z,25.06
2023-05-21T16:00:23.104Z,24.75
2023-05-21T16:05:17.778Z,24.80
2023-05-21T16:10:17.689Z,24.90
2023-05-21T16:15:17.866Z,24.83
2023-05-21T16:20:17.516Z,24.77
2023-05-21T16:25:17.456Z,24.77
2023-05-21T16:30:17.381Z,24.69
2023-05-21T16:35:17.396Z,24.76
2023-05-21T16:40:17.316Z,24.75
2023-05-21T16:45:17.186Z,24.76
2023-05-21T16:50:17.398Z,24.67
2023-05-21T16:55:17.081Z,24.56
2023-05-21T17:00:16.993Z,24.52
2023-05-21T17:05:16.929Z,24.52
2023-05-21T17:10:17.758Z,24.47
2023-05-21T17:15:16.827Z,24.23
2023-05-21T17:20:17.405Z,24.23
2023-05-21T17:25:16.725Z,24.19
2023-05-21T17:30:16.633Z,24.12
2023-05-21T17:35:16.575Z,24.02
2023-05-21T17:40:16.502Z,23.90
2023-05-21T17:45:16.426Z,23.85
2023-05-21T17:50:16.338Z,23.80
2023-05-21T17:55:16.299Z,23.75
2023-05-21T18:00:16.232Z,23.60
2023-05-21T18:05:16.149Z,23.46
2023-05-21T18:10:16.210Z,23.34
2023-05-21T18:15:16.021Z,23.11
2023-05-21T18:20:15.943Z,23.08
2023-05-21T18:25:16.017Z,23.04
2023-05-21T18:30:15.925Z,22.99
2023-05-21T18:35:16.782Z,22.86
2023-05-21T18:40:15.685Z,22.77
2023-05-21T18:45:15.623Z,22.67
2023-05-21T18:50:15.545Z,22.56
2023-05-21T18:55:15.471Z,22.60
2023-05-21T19:00:15.416Z,22.57
2023-05-21T19:05:15.385Z,22.37
2023-05-21T19:10:15.286Z,22.19
2023-05-21T19:15:15.211Z,21.95
2023-05-21T19:20:15.141Z,21.91
2023-05-21T19:25:15.064Z,21.94
2023-05-21T19:30:14.979Z,21.67
2023-05-21T19:35:14.930Z,21.38
2023-05-21T19:40:14.895Z,21.44
2023-05-21T19:45:14.799Z,21.42
2023-05-21T19:50:14.740Z,21.51
2023-05-21T19:55:14.670Z,21.50
2023-05-21T20:00:14.589Z,21.46
2023-05-21T20:05:14.570Z,21.51
2023-05-21T20:10:14.464Z,21.50
2023-05-21T20:15:14.396Z,21.51
2023-05-21T20:20:14.335Z,21.57
2023-05-21T20:25:14.306Z,21.42
2023-05-21T20:30:14.195Z,21.38
2023-05-21T20:35:14.120Z,21.11
2023-05-21T20:40:14.960Z,20.74
2023-05-21T20:45:13.988Z,20.62
2023-05-21T20:50:13.979Z,20.62
2023-05-21T20:55:13.917Z,20.58
2023-05-21T21:00:13.882Z,20.39
2023-05-21T21:05:13.828Z,20.31
2023-05-21T21:10:13.650Z,20.61
2023-05-21T21:15:13.583Z,20.79
2023-05-21T21:20:13.526Z,21.05
2023-05-21T21:25:13.452Z,20.84
2023-05-21T21:30:13.385Z,20.06
2023-05-21T21:35:13.310Z,19.70
2023-05-21T21:40:13.250Z,19.94
2023-05-21T21:45:13.172Z,20.10
2023-05-21T21:50:13.119Z,20.02
2023-05-21T21:55:13.050Z,19.39
2023-05-21T22:00:12.983Z,19.10
2023-05-21T22:05:12.914Z,19.42
2023-05-21T22:10:12.852Z,19.79
2023-05-21T22:15:12.785Z,19.84
2023-05-21T22:20:12.724Z,19.38
2023-05-21T22:25:12.656Z,19.02
2023-05-21T22:30:12.608Z,18.65
2023-05-21T22:35:12.523Z,18.77
2023-05-21T22:40:12.466Z,18.91
2023-05-21T22:45:12.389Z,19.10
2023-05-21T22:50:12.332Z,19.17
2023-05-21T22:55:12.290Z,18.98
2023-05-21T23:00:12.214Z,19.23
2023-05-21T23:05:12.176Z,18.79
2023-05-21T23:10:12.053Z,18.70
2023-05-21T23:15:11.995Z,17.91
2023-05-21T23:20:11.924Z,17.43
2023-05-21T23:25:11.855Z,17.25
2023-05-21T23:30:11.802Z,17.57
2023-05-21T23:35:11.722Z,18.29
2023-05-21T23:40:11.665Z,18.44
2023-05-21T23:45:11.605Z,18.76
2023-05-21T23:50:11.521Z,18.22
2023-05-21T23:55:11.475Z,17.62
